sensor_id;sensor_type;location;lat;lon;timestamp;pressure;altitude;pressure_sealevel;temperature;humidity
12868;BME280;33517;49.866;8.320;2023-02-18T00:01:48;101302.06;;;13.11;94.88
12868;BME280;33517;49.866;8.320;2023-02-18T00:04:40;101293.16;;;13.12;94.74
12868;BME280;33517;49.866;8.320;2023-02-18T00:07:33;101294.50;;;13.16;95.35
12868;BME280;33517;49.866;8.320;2023-02-18T00:10:25;101288.22;;;13.17;94.43
12868;BME280;33517;49.866;8.320;2023-02-18T00:13:19;101283.56;;;13.11;94.84
12868;BME280;33517;49.866;8.320;2023-02-18T00:16:11;101285.34;;;13.03;95.34
12868;BME280;33517;49.866;8.320;2023-02-18T00:19:06;101286.47;;;13.00;95.47
12868;BME280;33517;49.866;8.320;2023-02-18T00:21:58;101286.94;;;12.87;97.72
12868;BME280;33517;49.866;8.320;2023-02-18T00:24:50;101283.00;;;12.91;97.00
12868;BME280;33517;49.866;8.320;2023-02-18T00:27:42;101285.81;;;12.98;95.86
12868;BME280;33517;49.866;8.320;2023-02-18T00:30:39;101295.25;;;13.01;97.11
12868;BME280;33517;49.866;8.320;2023-02-18T00:33:31;101292.91;;;12.97;96.56
12868;BME280;33517;49.866;8.320;2023-02-18T00:36:23;101281.81;;;12.94;96.42
12868;BME280;33517;49.866;8.320;2023-02-18T00:39:15;101277.03;;;12.97;96.41
12868;BME280;33517;49.866;8.320;2023-02-18T00:42:07;101279.38;;;13.01;95.98
12868;BME280;33517;49.866;8.320;2023-02-18T00:44:59;101281.16;;;12.92;96.49
12868;BME280;33517;49.866;8.320;2023-02-18T00:47:52;101269.78;;;12.91;97.26
12868;BME280;33517;49.866;8.320;2023-02-18T00:50:44;101267.59;;;12.87;96.80
12868;BME280;33517;49.866;8.320;2023-02-18T00:53:36;101279.31;;;12.84;97.48
12868;BME280;33517;49.866;8.320;2023-02-18T00:56:29;101288.41;;;12.82;96.91
12868;BME280;33517;49.866;8.320;2023-02-18T00:59:20;101281.25;;;12.74;97.55
12868;BME280;33517;49.866;8.320;2023-02-18T01:02:12;101284.72;;;12.75;97.06
12868;BME280;33517;49.866;8.320;2023-02-18T01:05:06;101282.41;;;12.72;96.83
12868;BME280;33517;49.866;8.320;2023-02-18T01:07:58;101282.22;;;12.73;96.95
12868;BME280;33517;49.866;8.320;2023-02-18T01:10:54;101284.19;;;12.71;96.64
12868;BME280;33517;49.866;8.320;2023-02-18T01:13:46;101287.50;;;12.73;96.08
12868;BME280;33517;49.866;8.320;2023-02-18T01:16:38;101282.22;;;12.73;96.08
12868;BME280;33517;49.866;8.320;2023-02-18T01:19:30;101285.72;;;12.74;95.00
12868;BME280;33517;49.866;8.320;2023-02-18T01:22:24;101284.56;;;12.76;95.23
12868;BME280;33517;49.866;8.320;2023-02-18T01:25:16;101287.84;;;12.78;94.01
12868;BME280;33517;49.866;8.320;2023-02-18T01:28:10;101284.25;;;12.79;93.60
12868;BME280;33517;49.866;8.320;2023-02-18T01:31:04;101290.19;;;12.81;93.60
12868;BME280;33517;49.866;8.320;2023-02-18T01:33:57;101277.00;;;12.81;93.61
12868;BME280;33517;49.866;8.320;2023-02-18T01:36:48;101265.28;;;12.84;92.15
12868;BME280;33517;49.866;8.320;2023-02-18T01:39:42;101271.38;;;12.84;92.10
12868;BME280;33517;49.866;8.320;2023-02-18T01:42:33;101268.59;;;12.86;92.64
12868;BME280;33517;49.866;8.320;2023-02-18T01:45:47;101264.13;;;12.86;91.70
12868;BME280;33517;49.866;8.320;2023-02-18T01:48:42;101263.13;;;12.79;91.53
12868;BME280;33517;49.866;8.320;2023-02-18T01:51:37;101269.75;;;12.83;91.11
12868;BME280;33517;49.866;8.320;2023-02-18T01:54:32;101253.91;;;12.83;91.36
12868;BME280;33517;49.866;8.320;2023-02-18T01:57:29;101256.38;;;12.85;91.91
12868;BME280;33517;49.866;8.320;2023-02-18T02:00:22;101257.88;;;12.87;92.05
12868;BME280;33517;49.866;8.320;2023-02-18T02:03:14;101247.47;;;12.86;92.15
12868;BME280;33517;49.866;8.320;2023-02-18T02:06:13;101249.75;;;12.81;91.67
12868;BME280;33517;49.866;8.320;2023-02-18T02:09:09;101235.69;;;12.80;91.43
12868;BME280;33517;49.866;8.320;2023-02-18T02:12:19;101234.75;;;12.81;92.59
12868;BME280;33517;49.866;8.320;2023-02-18T02:15:32;101228.13;;;12.77;91.48
12868;BME280;33517;49.866;8.320;2023-02-18T02:18:42;101224.13;;;12.73;92.36
12868;BME280;33517;49.866;8.320;2023-02-18T02:21:59;101226.94;;;12.72;92.37
12868;BME280;33517;49.866;8.320;2023-02-18T02:25:29;101220.47;;;12.66;92.92
12868;BME280;33517;49.866;8.320;2023-02-18T02:29:04;101215.19;;;12.66;92.75
12868;BME280;33517;49.866;8.320;2023-02-18T02:35:22;101213.72;;;12.72;92.54
12868;BME280;33517;49.866;8.320;2023-02-18T02:38:18;101216.38;;;12.72;92.90
12868;BME280;33517;49.866;8.320;2023-02-18T02:41:23;101206.66;;;12.72;93.15
12868;BME280;33517;49.866;8.320;2023-02-18T02:44:20;101209.41;;;12.71;93.28
12868;BME280;33517;49.866;8.320;2023-02-18T02:47:17;101190.81;;;12.72;92.53
12868;BME280;33517;49.866;8.320;2023-02-18T02:50:15;101188.00;;;12.74;92.44
12868;BME280;33517;49.866;8.320;2023-02-18T02:53:13;101190.81;;;12.72;92.36
12868;BME280;33517;49.866;8.320;2023-02-18T02:56:10;101190.28;;;12.69;93.49
12868;BME280;33517;49.866;8.320;2023-02-18T02:59:08;101188.97;;;12.73;92.88
12868;BME280;33517;49.866;8.320;2023-02-18T03:02:12;101191.59;;;12.73;93.00
12868;BME280;33517;49.866;8.320;2023-02-18T03:05:20;101179.56;;;12.70;92.27
12868;BME280;33517;49.866;8.320;2023-02-18T03:08:24;101174.41;;;12.61;93.73
12868;BME280;33517;49.866;8.320;2023-02-18T03:11:20;101183.81;;;12.63;92.71
12868;BME280;33517;49.866;8.320;2023-02-18T03:14:16;101182.84;;;12.64;93.72
12868;BME280;33517;49.866;8.320;2023-02-18T03:17:20;101183.97;;;12.62;93.04
12868;BME280;33517;49.866;8.320;2023-02-18T03:20:18;101176.72;;;12.64;93.01
12868;BME280;33517;49.866;8.320;2023-02-18T03:23:15;101168.63;;;12.65;92.37
12868;BME280;33517;49.866;8.320;2023-02-18T03:26:10;101174.09;;;12.64;93.10
12868;BME280;33517;49.866;8.320;2023-02-18T03:29:06;101176.25;;;12.68;92.60
12868;BME280;33517;49.866;8.320;2023-02-18T03:32:03;101171.44;;;12.64;92.42
12868;BME280;33517;49.866;8.320;2023-02-18T03:34:59;101180.72;;;12.68;92.14
12868;BME280;33517;49.866;8.320;2023-02-18T03:37:56;101172.63;;;12.69;92.23
12868;BME280;33517;49.866;8.320;2023-02-18T03:40:50;101180.25;;;12.72;93.26
12868;BME280;33517;49.866;8.320;2023-02-18T03:43:49;101171.94;;;12.67;92.39
12868;BME280;33517;49.866;8.320;2023-02-18T03:46:42;101175.44;;;12.68;92.44
12868;BME280;33517;49.866;8.320;2023-02-18T03:49:35;101180.19;;;12.64;93.38
12868;BME280;33517;49.866;8.320;2023-02-18T03:52:26;101175.09;;;12.63;92.32
12868;BME280;33517;49.866;8.320;2023-02-18T03:55:18;101186.94;;;12.59;93.61
12868;BME280;33517;49.866;8.320;2023-02-18T03:58:10;101181.81;;;12.57;92.52
12868;BME280;33517;49.866;8.320;2023-02-18T04:01:04;101180.97;;;12.49;93.14
12868;BME280;33517;49.866;8.320;2023-02-18T04:03:56;101189.16;;;12.38;93.59
12868;BME280;33517;49.866;8.320;2023-02-18T04:06:48;101188.16;;;12.39;94.12
12868;BME280;33517;49.866;8.320;2023-02-18T04:09:40;101189.97;;;12.38;93.95
12868;BME280;33517;49.866;8.320;2023-02-18T04:12:32;101175.91;;;12.30;95.59
12868;BME280;33517;49.866;8.320;2023-02-18T04:15:23;101166.81;;;12.24;96.10
12868;BME280;33517;49.866;8.320;2023-02-18T04:18:17;101163.81;;;12.19;96.38
12868;BME280;33517;49.866;8.320;2023-02-18T04:21:09;101162.50;;;12.15;97.32
12868;BME280;33517;49.866;8.320;2023-02-18T04:24:01;101161.97;;;12.12;96.44
12868;BME280;33517;49.866;8.320;2023-02-18T04:26:53;101156.00;;;12.10;97.50
12868;BME280;33517;49.866;8.320;2023-02-18T04:29:45;101163.13;;;12.09;96.40
12868;BME280;33517;49.866;8.320;2023-02-18T04:32:37;101152.91;;;12.14;97.04
12868;BME280;33517;49.866;8.320;2023-02-18T04:35:30;101157.88;;;12.17;96.92
12868;BME280;33517;49.866;8.320;2023-02-18T04:38:22;101156.69;;;12.12;96.10
12868;BME280;33517;49.866;8.320;2023-02-18T04:41:14;101148.94;;;12.10;95.99
12868;BME280;33517;49.866;8.320;2023-02-18T04:44:06;101149.31;;;12.15;96.12
12868;BME280;33517;49.866;8.320;2023-02-18T04:46:58;101149.97;;;12.17;94.67
12868;BME280;33517;49.866;8.320;2023-02-18T04:49:50;101154.75;;;12.22;94.52
12868;BME280;33517;49.866;8.320;2023-02-18T04:52:43;101157.78;;;12.27;93.83
12868;BME280;33517;49.866;8.320;2023-02-18T04:55:35;101163.69;;;12.29;93.18
12868;BME280;33517;49.866;8.320;2023-02-18T04:58:27;101162.06;;;12.28;93.05
12868;BME280;33517;49.866;8.320;2023-02-18T05:01:19;101165.81;;;12.25;92.56
12868;BME280;33517;49.866;8.320;2023-02-18T05:04:11;101158.53;;;12.19;92.13
12868;BME280;33517;49.866;8.320;2023-02-18T05:07:03;101160.53;;;12.17;91.44
12868;BME280;33517;49.866;8.320;2023-02-18T05:09:56;101147.00;;;12.20;90.97
12868;BME280;33517;49.866;8.320;2023-02-18T05:12:48;101143.69;;;12.18;90.87
12868;BME280;33517;49.866;8.320;2023-02-18T05:15:40;101146.28;;;12.10;91.08
12868;BME280;33517;49.866;8.320;2023-02-18T05:18:32;101143.50;;;12.12;90.50
12868;BME280;33517;49.866;8.320;2023-02-18T05:21:23;101148.09;;;12.10;90.69
12868;BME280;33517;49.866;8.320;2023-02-18T05:24:15;101142.00;;;12.09;89.75
12868;BME280;33517;49.866;8.320;2023-02-18T05:27:09;101148.41;;;12.07;88.67
12868;BME280;33517;49.866;8.320;2023-02-18T05:30:00;101147.28;;;12.09;88.63
12868;BME280;33517;49.866;8.320;2023-02-18T05:32:52;101135.75;;;12.10;87.55
12868;BME280;33517;49.866;8.320;2023-02-18T05:35:44;101129.63;;;12.10;86.96
12868;BME280;33517;49.866;8.320;2023-02-18T05:38:36;101127.31;;;12.07;85.25
12868;BME280;33517;49.866;8.320;2023-02-18T05:41:28;101138.88;;;12.06;86.47
12868;BME280;33517;49.866;8.320;2023-02-18T05:44:21;101137.09;;;12.14;85.23
12868;BME280;33517;49.866;8.320;2023-02-18T05:47:23;101130.84;;;12.15;84.83
12868;BME280;33517;49.866;8.320;2023-02-18T05:50:15;101130.97;;;12.14;83.94
12868;BME280;33517;49.866;8.320;2023-02-18T05:53:07;101142.19;;;12.16;83.77
12868;BME280;33517;49.866;8.320;2023-02-18T05:55:59;101129.84;;;12.16;82.32
12868;BME280;33517;49.866;8.320;2023-02-18T05:58:50;101130.84;;;12.15;81.51
12868;BME280;33517;49.866;8.320;2023-02-18T06:01:45;101127.38;;;12.15;81.22
12868;BME280;33517;49.866;8.320;2023-02-18T06:04:38;101111.38;;;12.16;81.21
12868;BME280;33517;49.866;8.320;2023-02-18T06:07:30;101120.28;;;12.15;81.20
12868;BME280;33517;49.866;8.320;2023-02-18T06:10:22;101110.22;;;12.19;80.75
12868;BME280;33517;49.866;8.320;2023-02-18T06:13:14;101097.66;;;12.13;79.25
12868;BME280;33517;49.866;8.320;2023-02-18T06:16:06;101094.19;;;12.12;79.38
12868;BME280;33517;49.866;8.320;2023-02-18T06:18:59;101086.44;;;12.11;79.80
12868;BME280;33517;49.866;8.320;2023-02-18T06:21:51;101083.59;;;12.04;78.62
12868;BME280;33517;49.866;8.320;2023-02-18T06:24:43;101102.56;;;11.99;77.85
12868;BME280;33517;49.866;8.320;2023-02-18T06:27:35;101104.16;;;11.92;77.69
12868;BME280;33517;49.866;8.320;2023-02-18T06:30:27;101107.63;;;11.93;78.57
12868;BME280;33517;49.866;8.320;2023-02-18T06:33:19;101095.09;;;11.95;79.10
12868;BME280;33517;49.866;8.320;2023-02-18T06:36:14;101112.38;;;11.89;78.66
12868;BME280;33517;49.866;8.320;2023-02-18T06:39:06;101119.16;;;11.92;77.89
12868;BME280;33517;49.866;8.320;2023-02-18T06:41:58;101117.50;;;11.91;78.27
12868;BME280;33517;49.866;8.320;2023-02-18T06:44:50;101116.00;;;11.88;77.81
12868;BME280;33517;49.866;8.320;2023-02-18T06:47:42;101128.53;;;11.86;78.24
12868;BME280;33517;49.866;8.320;2023-02-18T06:50:34;101130.69;;;11.91;79.06
12868;BME280;33517;49.866;8.320;2023-02-18T06:53:27;101118.00;;;11.86;78.88
12868;BME280;33517;49.866;8.320;2023-02-18T06:56:19;101114.69;;;11.92;78.51
12868;BME280;33517;49.866;8.320;2023-02-18T06:59:11;101112.22;;;11.91;77.75
12868;BME280;33517;49.866;8.320;2023-02-18T07:02:04;101126.44;;;11.98;77.98
12868;BME280;33517;49.866;8.320;2023-02-18T07:04:56;101121.53;;;12.03;77.71
12868;BME280;33517;49.866;8.320;2023-02-18T07:07:48;101135.06;;;12.08;75.81
12868;BME280;33517;49.866;8.320;2023-02-18T07:10:41;101116.97;;;12.13;75.94
12868;BME280;33517;49.866;8.320;2023-02-18T07:13:33;101112.38;;;12.15;75.50
12868;BME280;33517;49.866;8.320;2023-02-18T07:16:25;101109.56;;;12.17;75.98
12868;BME280;33517;49.866;8.320;2023-02-18T07:19:17;101108.72;;;12.16;76.33
12868;BME280;33517;49.866;8.320;2023-02-18T07:22:08;101100.31;;;12.13;76.20
12868;BME280;33517;49.866;8.320;2023-02-18T07:25:00;101102.31;;;12.19;76.16
12868;BME280;33517;49.866;8.320;2023-02-18T07:27:54;101109.72;;;12.15;77.21
12868;BME280;33517;49.866;8.320;2023-02-18T07:30:46;101105.94;;;12.18;77.01
12868;BME280;33517;49.866;8.320;2023-02-18T07:33:37;101104.13;;;12.18;75.90
12868;BME280;33517;49.866;8.320;2023-02-18T07:36:29;101100.19;;;12.22;76.20
12868;BME280;33517;49.866;8.320;2023-02-18T07:39:21;101096.41;;;12.25;75.63
12868;BME280;33517;49.866;8.320;2023-02-18T07:42:13;101101.53;;;12.26;75.63
12868;BME280;33517;49.866;8.320;2023-02-18T07:45:07;101093.94;;;12.31;75.69
12868;BME280;33517;49.866;8.320;2023-02-18T07:47:59;101098.44;;;12.39;74.25
12868;BME280;33517;49.866;8.320;2023-02-18T07:50:51;101095.56;;;12.90;73.02
12868;BME280;33517;49.866;8.320;2023-02-18T07:53:43;101098.38;;;12.80;73.40
12868;BME280;33517;49.866;8.320;2023-02-18T07:56:35;101099.69;;;12.84;73.59
12868;BME280;33517;49.866;8.320;2023-02-18T07:59:27;101099.84;;;12.75;74.06
12868;BME280;33517;49.866;8.320;2023-02-18T08:02:22;101100.69;;;12.75;73.31
12868;BME280;33517;49.866;8.320;2023-02-18T08:05:14;101095.28;;;13.01;72.11
12868;BME280;33517;49.866;8.320;2023-02-18T08:08:06;101095.09;;;13.03;71.14
12868;BME280;33517;49.866;8.320;2023-02-18T08:10:59;101096.63;;;13.05;70.32
12868;BME280;33517;49.866;8.320;2023-02-18T08:13:52;101077.94;;;12.98;70.48
12868;BME280;33517;49.866;8.320;2023-02-18T08:16:44;101067.06;;;13.26;69.40
12868;BME280;33517;49.866;8.320;2023-02-18T08:19:37;101060.78;;;13.43;68.22
12868;BME280;33517;49.866;8.320;2023-02-18T08:22:29;101068.59;;;13.91;66.20
12868;BME280;33517;49.866;8.320;2023-02-18T08:25:21;101067.97;;;15.41;62.36
12868;BME280;33517;49.866;8.320;2023-02-18T08:28:13;101074.22;;;17.07;58.75
12868;BME280;33517;49.866;8.320;2023-02-18T08:31:05;101091.47;;;16.25;56.43
12868;BME280;33517;49.866;8.320;2023-02-18T08:33:58;101086.97;;;15.52;59.00
12868;BME280;33517;49.866;8.320;2023-02-18T08:36:52;101079.00;;;17.67;55.07
12868;BME280;33517;49.866;8.320;2023-02-18T08:39:44;101083.72;;;19.52;48.37
12868;BME280;33517;49.866;8.320;2023-02-18T08:42:36;101085.00;;;21.82;44.68
12868;BME280;33517;49.866;8.320;2023-02-18T08:45:28;101092.88;;;23.73;40.85
12868;BME280;33517;49.866;8.320;2023-02-18T08:48:20;101100.56;;;23.35;39.18
12868;BME280;33517;49.866;8.320;2023-02-18T08:51:13;101104.66;;;21.52;41.22
12868;BME280;33517;49.866;8.320;2023-02-18T08:54:07;101117.13;;;20.71;41.32
12868;BME280;33517;49.866;8.320;2023-02-18T08:56:58;101109.41;;;20.50;42.38
12868;BME280;33517;49.866;8.320;2023-02-18T08:59:50;101102.50;;;18.66;45.08
12868;BME280;33517;49.866;8.320;2023-02-18T09:02:43;101116.88;;;18.30;46.29
12868;BME280;33517;49.866;8.320;2023-02-18T09:05:34;101103.97;;;18.81;45.43
12868;BME280;33517;49.866;8.320;2023-02-18T09:08:27;101103.31;;;18.60;46.88
12868;BME280;33517;49.866;8.320;2023-02-18T09:11:20;101100.38;;;19.54;44.49
12868;BME280;33517;49.866;8.320;2023-02-18T09:14:12;101098.00;;;20.16;43.04
12868;BME280;33517;49.866;8.320;2023-02-18T09:17:04;101083.75;;;20.80;42.33
12868;BME280;33517;49.866;8.320;2023-02-18T09:19:56;101104.72;;;20.39;41.26
12868;BME280;33517;49.866;8.320;2023-02-18T09:22:48;101113.28;;;19.31;43.70
12868;BME280;33517;49.866;8.320;2023-02-18T09:25:40;101093.19;;;17.46;46.00
12868;BME280;33517;49.866;8.320;2023-02-18T09:28:33;101096.88;;;17.45;47.51
12868;BME280;33517;49.866;8.320;2023-02-18T09:31:26;101122.63;;;17.66;47.11
12868;BME280;33517;49.866;8.320;2023-02-18T09:34:19;101106.38;;;17.33;47.76
12868;BME280;33517;49.866;8.320;2023-02-18T09:37:10;101117.13;;;16.83;48.89
12868;BME280;33517;49.866;8.320;2023-02-18T09:40:05;101111.81;;;16.32;50.30
12868;BME280;33517;49.866;8.320;2023-02-18T09:42:58;101116.41;;;16.24;51.00
12868;BME280;33517;49.866;8.320;2023-02-18T09:45:52;101107.44;;;15.96;51.54
12868;BME280;33517;49.866;8.320;2023-02-18T09:48:46;101100.66;;;16.22;51.09
12868;BME280;33517;49.866;8.320;2023-02-18T09:51:38;101095.06;;;16.17;51.66
12868;BME280;33517;49.866;8.320;2023-02-18T09:54:30;101092.03;;;16.49;50.55
12868;BME280;33517;49.866;8.320;2023-02-18T09:57:25;101092.31;;;17.67;49.00
12868;BME280;33517;49.866;8.320;2023-02-18T10:00:21;101081.09;;;17.99;47.27
12868;BME280;33517;49.866;8.320;2023-02-18T10:03:17;101107.69;;;16.59;50.08
12868;BME280;33517;49.866;8.320;2023-02-18T10:06:11;101106.69;;;15.87;51.59
12868;BME280;33517;49.866;8.320;2023-02-18T10:09:15;101089.34;;;15.25;53.70
12868;BME280;33517;49.866;8.320;2023-02-18T10:12:14;101103.78;;;14.77;54.53
12868;BME280;33517;49.866;8.320;2023-02-18T10:15:09;101109.63;;;14.26;56.16
12868;BME280;33517;49.866;8.320;2023-02-18T10:18:19;101105.78;;;13.98;57.69
12868;BME280;33517;49.866;8.320;2023-02-18T10:21:14;101105.59;;;13.99;58.77
12868;BME280;33517;49.866;8.320;2023-02-18T10:24:18;101097.53;;;13.84;58.91
12868;BME280;33517;49.866;8.320;2023-02-18T10:27:16;101103.47;;;13.95;58.98
12868;BME280;33517;49.866;8.320;2023-02-18T10:30:20;101092.97;;;14.17;58.60
12868;BME280;33517;49.866;8.320;2023-02-18T10:33:31;101084.38;;;14.15;59.01
12868;BME280;33517;49.866;8.320;2023-02-18T10:36:25;101084.78;;;13.96;59.77
12868;BME280;33517;49.866;8.320;2023-02-18T10:39:31;101053.03;;;13.96;60.29
12868;BME280;33517;49.866;8.320;2023-02-18T10:42:36;101082.97;;;13.88;60.33
12868;BME280;33517;49.866;8.320;2023-02-18T10:45:37;101086.00;;;13.77;60.14
12868;BME280;33517;49.866;8.320;2023-02-18T10:48:46;101097.56;;;13.76;61.76
12868;BME280;33517;49.866;8.320;2023-02-18T10:51:46;101097.13;;;14.12;60.96
12868;BME280;33517;49.866;8.320;2023-02-18T10:54:53;101095.38;;;14.73;59.78
12868;BME280;33517;49.866;8.320;2023-02-18T10:57:50;101090.31;;;14.64;58.70
12868;BME280;33517;49.866;8.320;2023-02-18T11:00:43;101086.97;;;14.93;58.81
12868;BME280;33517;49.866;8.320;2023-02-18T11:03:40;101054.91;;;15.02;57.81
12868;BME280;33517;49.866;8.320;2023-02-18T11:06:38;101058.00;;;15.28;58.25
12868;BME280;33517;49.866;8.320;2023-02-18T11:09:38;101066.94;;;15.27;57.37
12868;BME280;33517;49.866;8.320;2023-02-18T11:12:38;101065.66;;;15.46;57.40
12868;BME280;33517;49.866;8.320;2023-02-18T11:15:32;101064.50;;;15.63;56.52
12868;BME280;33517;49.866;8.320;2023-02-18T11:18:34;101053.78;;;15.19;57.22
12868;BME280;33517;49.866;8.320;2023-02-18T11:21:33;101054.25;;;15.75;57.14
12868;BME280;33517;49.866;8.320;2023-02-18T11:24:25;101058.81;;;15.51;56.32
12868;BME280;33517;49.866;8.320;2023-02-18T11:27:21;101064.69;;;15.39;56.63
12868;BME280;33517;49.866;8.320;2023-02-18T11:30:19;101045.28;;;16.05;54.59
12868;BME280;33517;49.866;8.320;2023-02-18T11:33:16;101045.09;;;15.92;54.21
12868;BME280;33517;49.866;8.320;2023-02-18T11:36:17;101042.06;;;15.65;54.39
12868;BME280;33517;49.866;8.320;2023-02-18T11:39:19;101052.22;;;15.62;55.35
12868;BME280;33517;49.866;8.320;2023-02-18T11:42:14;101054.44;;;15.36;55.81
12868;BME280;33517;49.866;8.320;2023-02-18T11:45:25;101046.31;;;15.00;56.14
12868;BME280;33517;49.866;8.320;2023-02-18T11:48:22;101038.84;;;14.81;57.26
12868;BME280;33517;49.866;8.320;2023-02-18T11:51:16;101050.63;;;14.56;57.33
12868;BME280;33517;49.866;8.320;2023-02-18T11:54:22;101057.53;;;14.57;57.60
12868;BME280;33517;49.866;8.320;2023-02-18T11:57:16;101055.38;;;14.30;58.14
12868;BME280;33517;49.866;8.320;2023-02-18T12:00:16;101048.56;;;13.97;59.41
12868;BME280;33517;49.866;8.320;2023-02-18T12:03:16;101051.94;;;13.74;60.76
12868;BME280;33517;49.866;8.320;2023-02-18T12:06:13;101052.28;;;13.71;61.06
12868;BME280;33517;49.866;8.320;2023-02-18T12:09:17;101042.03;;;13.68;61.20
12868;BME280;33517;49.866;8.320;2023-02-18T12:12:14;101036.06;;;13.74;61.30
12868;BME280;33517;49.866;8.320;2023-02-18T12:15:08;101013.59;;;13.70;61.55
12868;BME280;33517;49.866;8.320;2023-02-18T12:18:15;101021.56;;;13.62;61.86
12868;BME280;33517;49.866;8.320;2023-02-18T12:21:20;101003.19;;;13.69;62.21
12868;BME280;33517;49.866;8.320;2023-02-18T12:24:26;100980.16;;;13.85;62.11
12868;BME280;33517;49.866;8.320;2023-02-18T12:27:29;100970.91;;;14.12;62.27
12868;BME280;33517;49.866;8.320;2023-02-18T12:30:37;100963.72;;;14.29;61.54
12868;BME280;33517;49.866;8.320;2023-02-18T12:33:40;100968.56;;;14.17;61.22
12868;BME280;33517;49.866;8.320;2023-02-18T12:36:45;100976.28;;;14.27;61.63
12868;BME280;33517;49.866;8.320;2023-02-18T12:39:54;100967.13;;;14.37;61.31
12868;BME280;33517;49.866;8.320;2023-02-18T12:42:53;100972.28;;;14.39;61.38
12868;BME280;33517;49.866;8.320;2023-02-18T12:46:01;100951.38;;;14.44;61.63
12868;BME280;33517;49.866;8.320;2023-02-18T12:49:13;100957.28;;;14.23;61.41
12868;BME280;33517;49.866;8.320;2023-02-18T12:52:17;100955.72;;;14.06;62.17
12868;BME280;33517;49.866;8.320;2023-02-18T12:55:31;100963.56;;;13.92;62.91
12868;BME280;33517;49.866;8.320;2023-02-18T12:58:39;100963.06;;;13.96;63.36
12868;BME280;33517;49.866;8.320;2023-02-18T13:01:41;100955.91;;;14.05;63.36
12868;BME280;33517;49.866;8.320;2023-02-18T13:04:46;100956.38;;;14.08;62.17
12868;BME280;33517;49.866;8.320;2023-02-18T13:07:53;100942.56;;;14.29;62.10
12868;BME280;33517;49.866;8.320;2023-02-18T13:11:02;100956.84;;;14.65;61.77
12868;BME280;33517;49.866;8.320;2023-02-18T13:13:59;100969.34;;;14.94;61.13
12868;BME280;33517;49.866;8.320;2023-02-18T13:16:55;100971.09;;;15.01;61.03
12868;BME280;33517;49.866;8.320;2023-02-18T13:19:51;100964.69;;;14.96;60.49
12868;BME280;33517;49.866;8.320;2023-02-18T13:22:46;100960.41;;;14.95;60.57
12868;BME280;33517;49.866;8.320;2023-02-18T13:25:39;100973.28;;;14.98;60.12
12868;BME280;33517;49.866;8.320;2023-02-18T13:28:36;100970.13;;;14.79;60.85
12868;BME280;33517;49.866;8.320;2023-02-18T13:31:39;100963.25;;;14.70;61.37
12868;BME280;33517;49.866;8.320;2023-02-18T13:34:35;100960.13;;;14.67;61.57
12868;BME280;33517;49.866;8.320;2023-02-18T13:37:37;100972.13;;;14.32;62.06
12868;BME280;33517;49.866;8.320;2023-02-18T13:40:32;100968.56;;;14.17;62.92
12868;BME280;33517;49.866;8.320;2023-02-18T13:43:29;100964.31;;;14.08;63.76
12868;BME280;33517;49.866;8.320;2023-02-18T13:46:22;100952.03;;;14.15;63.46
12868;BME280;33517;49.866;8.320;2023-02-18T13:49:18;100960.69;;;14.01;63.61
12868;BME280;33517;49.866;8.320;2023-02-18T13:52:16;100965.22;;;13.93;64.50
12868;BME280;33517;49.866;8.320;2023-02-18T13:55:17;100951.75;;;13.79;65.10
12868;BME280;33517;49.866;8.320;2023-02-18T13:58:15;100954.38;;;13.79;65.21
12868;BME280;33517;49.866;8.320;2023-02-18T14:01:19;100963.31;;;13.70;65.16
12868;BME280;33517;49.866;8.320;2023-02-18T14:07:46;100976.75;;;13.61;66.21
12868;BME280;33517;49.866;8.320;2023-02-18T14:10:40;100980.91;;;13.55;66.84
12868;BME280;33517;49.866;8.320;2023-02-18T14:13:39;100972.44;;;13.68;66.49
12868;BME280;33517;49.866;8.320;2023-02-18T14:20:28;100978.06;;;13.65;67.01
12868;BME280;33517;49.866;8.320;2023-02-18T14:23:48;100962.88;;;13.59;66.74
12868;BME280;33517;49.866;8.320;2023-02-18T14:26:47;100942.91;;;13.56;66.92
12868;BME280;33517;49.866;8.320;2023-02-18T14:29:39;100966.84;;;13.63;67.19
12868;BME280;33517;49.866;8.320;2023-02-18T14:32:32;100959.56;;;13.57;66.81
12868;BME280;33517;49.866;8.320;2023-02-18T14:35:29;100950.19;;;13.54;67.60
12868;BME280;33517;49.866;8.320;2023-02-18T14:38:31;100969.47;;;13.63;67.37
12868;BME280;33517;49.866;8.320;2023-02-18T14:41:36;100955.81;;;13.51;68.05
12868;BME280;33517;49.866;8.320;2023-02-18T14:44:41;100960.88;;;13.69;67.72
12868;BME280;33517;49.866;8.320;2023-02-18T14:47:53;100969.13;;;13.74;68.95
12868;BME280;33517;49.866;8.320;2023-02-18T14:50:48;100977.31;;;13.48;71.30
12868;BME280;33517;49.866;8.320;2023-02-18T14:53:43;100970.25;;;13.33;72.18
12868;BME280;33517;49.866;8.320;2023-02-18T14:56:44;100970.59;;;13.22;72.77
12868;BME280;33517;49.866;8.320;2023-02-18T14:59:41;100974.06;;;13.22;72.34
12868;BME280;33517;49.866;8.320;2023-02-18T15:02:35;100983.47;;;13.25;71.17
12868;BME280;33517;49.866;8.320;2023-02-18T15:05:30;100979.97;;;13.32;71.49
12868;BME280;33517;49.866;8.320;2023-02-18T15:08:23;100984.78;;;13.29;70.71
12868;BME280;33517;49.866;8.320;2023-02-18T15:11:16;100991.88;;;13.28;70.38
12868;BME280;33517;49.866;8.320;2023-02-18T15:14:16;100985.78;;;13.28;70.42
12868;BME280;33517;49.866;8.320;2023-02-18T15:17:13;100992.56;;;13.22;71.00
12868;BME280;33517;49.866;8.320;2023-02-18T15:20:09;100997.16;;;13.28;70.37
12868;BME280;33517;49.866;8.320;2023-02-18T15:23:02;100999.50;;;13.23;71.38
12868;BME280;33517;49.866;8.320;2023-02-18T15:25:54;100989.59;;;13.25;71.35
12868;BME280;33517;49.866;8.320;2023-02-18T15:28:53;101000.34;;;13.24;70.92
12868;BME280;33517;49.866;8.320;2023-02-18T15:31:48;100996.53;;;13.10;70.90